Flight Track Log - Related Links

Times and Time Zones

All times are in EDT time to prevent confusion due to time zone crossing. See the N143DE flight status page for this flight to view local times or setup timezone preferences in your user account.

Time Position Orientation Groundspeed Altitude Reporting Facility
EDT Latitude Longitude Course Direction KTS MPH feet Rate Location/Type
Wed 08:11:57 AM 36.5308 -82.3825 359° North 166 191 8,900  Level Atlanta Center
Wed 08:12:57 AM 36.5681 -82.3456 39° Northeast 178 205 10,800 1,850 Climbing Atlanta Center
Wed 08:13:57 AM 36.6158 -82.3447 North 158 182 12,600 1,800 Climbing Atlanta Center
Wed 08:14:57 AM 36.6597 -82.3464 358° North 158 182 14,400 1,517 Climbing Atlanta Center
Wed 08:16:55 AM 36.7439 -82.3494 358° North 154 177 17,100 1,300 Climbing Indianapolis Center
Wed 08:17:00 AM 37.0278 -82.4206 359° North  Level Estimated
Wed 08:17:57 AM 36.7881 -82.3569 352° North 159 183 18,300  Level Indianapolis Center
Wed 08:18:59 AM 36.8319 -82.3642 352° North 159 183 19,400 1,024 Climbing Indianapolis Center
Wed 08:20:00 AM 36.8756 -82.3681 356° North 158 182 20,400 927 Climbing Indianapolis Center
Wed 08:21:02 AM 36.9208 -82.3708 357° North 161 185 21,300 829 Climbing Indianapolis Center
Wed 08:22:03 AM 36.9658 -82.3736 357° North 162 186 22,100 780 Climbing Indianapolis Center
Wed 08:23:05 AM 37.0150 -82.3744 359° North 172 198 22,900 829 Climbing Indianapolis Center
Wed 08:24:06 AM 37.0714 -82.3747 360° North 174 200 23,800 829 Climbing Indianapolis Center
Wed 08:25:08 AM 37.1197 -82.3706 North 175 201 24,600 634 Climbing Indianapolis Center
Wed 08:26:09 AM 37.1683 -82.3683 North 174 200 25,100 244 Climbing Indianapolis Center
Wed 08:27:11 AM 37.2228 -82.3628 North 195 224 25,100  Level Indianapolis Center
Wed 08:28:12 AM 37.2817 -82.3619 North 207 238 25,100  Level Indianapolis Center
Wed 08:29:14 AM 37.3428 -82.3611 North 216 249 25,100  Level Indianapolis Center
Wed 08:30:15 AM 37.4044 -82.3611 360° North 220 253 25,100  Level Indianapolis Center
Wed 08:31:17 AM 37.4761 -82.3683 355° North 220 253 25,100  Level Indianapolis Center
Wed 08:32:19 AM 37.5367 -82.3714 358° North 218 251 25,100  Level Indianapolis Center
Wed 08:33:20 AM 37.5972 -82.3781 355° North 221 254 25,100  Level Indianapolis Center
Wed 08:34:22 AM 37.6567 -82.3858 354° North 217 250 25,100  Level Indianapolis Center
Wed 08:35:23 AM 37.7167 -82.3917 356° North 218 251 25,100  Level Indianapolis Center
Wed 08:36:25 AM 37.7772 -82.3961 357° North 218 251 25,100  Level Indianapolis Center
Wed 08:37:27 AM 37.8369 -82.4047 354° North 221 254 25,100  Level Indianapolis Center
Wed 08:38:28 AM 37.9056 -82.4100 357° North 212 244 25,100  Level Indianapolis Center
Wed 08:39:30 AM 37.9653 -82.4139 357° North 214 246 25,100  Level Indianapolis Center
Wed 08:40:32 AM 38.0247 -82.4158 359° North 213 245 25,100  Level Indianapolis Center
Wed 08:41:33 AM 38.0847 -82.4156 360° North 217 250 25,100  Level Indianapolis Center
Wed 08:42:35 AM 38.1453 -82.4114 North 216 249 25,100  Level Indianapolis Center
Wed 08:43:37 AM 38.2067 -82.4122 359° North 219 252 25,100  Level Indianapolis Center
Wed 08:44:38 AM 38.2664 -82.4147 358° North 213 245 25,100  Level Indianapolis Center
Wed 08:45:40 AM 38.3283 -82.4114 North 219 252 25,100  Level Indianapolis Center
Wed 08:46:42 AM 38.3892 -82.4117 360° North 217 250 25,100  Level Indianapolis Center
Wed 08:47:43 AM 38.4603 -82.4136 359° North 213 245 25,100  Level Indianapolis Center
Wed 08:48:45 AM 38.5206 -82.4144 359° North 215 247 25,100  Level Indianapolis Center
Wed 08:49:47 AM 38.5794 -82.4181 357° North 212 244 25,100  Level Indianapolis Center
Wed 08:50:48 AM 38.6389 -82.4233 356° North 214 246 25,100  Level Indianapolis Center
Wed 08:51:50 AM 38.6981 -82.4242 359° North 212 244 25,100  Level Indianapolis Center
Wed 08:52:52 AM 38.7561 -82.4289 356° North 208 239 25,100  Level Indianapolis Center
Wed 08:53:54 AM 38.8153 -82.4314 358° North 212 244 25,100  Level Indianapolis Center
Wed 08:54:55 AM 38.8742 -82.4350 357° North 212 244 25,100  Level Indianapolis Center
Wed 08:55:57 AM 38.9339 -82.4381 358° North 213 245 25,100  Level Indianapolis Center
Wed 08:56:59 AM 39.0050 -82.4394 359° North 213 245 25,100 -48 Level Indianapolis Center
Wed 08:58:01 AM 39.0642 -82.4431 357° North 212 244 25,000 -390 Descending Indianapolis Center
Wed 08:59:02 AM 39.1275 -82.4436 360° North 226 260 24,300 -634 Descending Indianapolis Center
Wed 09:00:04 AM 39.1947 -82.4431 360° North 239 275 23,700 -581 Descending Indianapolis Center
Wed 09:01:06 AM 39.2619 -82.4503 355° North 241 277 23,100 -290 Descending Indianapolis Center
Wed 09:02:08 AM 39.3269 -82.4542 357° North 234 269 23,100  Level Indianapolis Center
Wed 09:03:10 AM 39.3861 -82.4597 356° North 217 250 23,100  Level Indianapolis Center
Wed 09:04:11 AM 39.4478 -82.4672 355° North 215 247 23,100  Level Indianapolis Center
Wed 09:05:13 AM 39.5172 -82.4731 356° North 212 244 23,100  Level Indianapolis Center
Wed 09:06:15 AM 39.5778 -82.4742 359° North 215 247 23,100 -242 Level Indianapolis Center
Wed 09:07:17 AM 39.6378 -82.4797 356° North 214 246 22,600 -1,016 Descending Indianapolis Center
Wed 09:08:19 AM 39.7053 -82.4811 359° North 236 272 21,000 -1,684 Descending Indianapolis Center
Wed 09:09:11 AM 39.7708 -82.4853 357° North 258 297 19,400 -1,664 Descending Indianapolis Center
Wed 09:10:18 AM 39.8464 -82.4825 North 253 291 17,700 -1,587 Descending Indianapolis Center
Wed 09:11:12 AM 39.9094 -82.4783 North 246 283 16,200 -1,878 Descending Indianapolis Center
Wed 09:12:13 AM 39.9872 -82.4731 North 257 296 14,100 -1,967 Descending Indianapolis Center
Wed 09:13:14 AM 40.0561 -82.4753 359° North 254 292 12,200 -1,770 Descending Indianapolis Center
Wed 09:14:15 AM 40.1231 -82.4742 North 241 277 10,500 -1,587 Descending Indianapolis Center
Wed 09:15:15 AM 40.1853 -82.4836 353° North 230 265 9,000 -1,579 Descending Indianapolis Center
Wed 09:15:31 AM 40.2011 -82.4850 356° North 233 268 8,500 -1,231 Descending Indianapolis Center
Wed 09:16:33 AM 40.2700 -82.4933 355° North 228 262 7,400 -919 Descending Indianapolis Center
Wed 09:17:35 AM 40.3286 -82.4978 357° North 213 245 6,600 -726 Descending Indianapolis Center
Wed 09:18:37 AM 40.3889 -82.5036 356° North 214 246 5,900 -339 Descending Indianapolis Center
Wed 09:19:39 AM 40.4439 -82.5100 355° North 203 234 5,900  Level Indianapolis Center
Wed 09:20:41 AM 40.4944 -82.5144 356° North 186 214 5,900 -48 Level Indianapolis Center
Wed 09:21:43 AM 40.5481 -82.5194 356° North 190 219 5,800 -484 Descending Indianapolis Center
Wed 09:22:45 AM 40.6075 -82.5236 357° North 205 236 4,900 -1,016 Descending Indianapolis Center
Wed 09:23:47 AM 40.6692 -82.5231 360° North 215 247 3,700 -683 Descending Indianapolis Center
Wed 09:24:48 AM 40.7203 -82.5528 336° Northwest 204 235 3,500 -585 Descending Indianapolis Center
Wed 09:25:50 AM 40.7675 -82.5792 337° Northwest 178 205 2,500 -629 Descending Indianapolis Center
Wed 09:26:52 AM 40.7917 -82.5539 38° Northeast 159 183 2,200 -290 Descending Indianapolis Center
Wed 09:28:00 AM 40.8167 -82.5000 90° East  Level FlightAware Approximate
Wed 09:35:00 AM 40.8214 -82.5166 90° East  Level Estimated

Login

Don't have an account? Register now (free) for customized features, flight alerts, and more!